sensor_id;sensor_type;location;lat;lon;timestamp;P1;durP1;ratioP1;P2;durP2;ratioP2
12135;SDS011;6131;56.420;15.548;2023-07-24T00:00:19;1.60;;;1.50;;
12135;SDS011;6131;56.420;15.548;2023-07-24T00:02:45;1.53;;;1.43;;
12135;SDS011;6131;56.420;15.548;2023-07-24T00:05:11;1.40;;;1.20;;
12135;SDS011;6131;56.420;15.548;2023-07-24T00:07:37;1.47;;;1.20;;
12135;SDS011;6131;56.420;15.548;2023-07-24T00:10:04;2.17;;;1.17;;
12135;SDS011;6131;56.420;15.548;2023-07-24T00:12:30;1.57;;;1.30;;
12135;SDS011;6131;56.420;15.548;2023-07-24T00:14:56;1.67;;;1.30;;
12135;SDS011;6131;56.420;15.548;2023-07-24T00:17:22;1.47;;;1.07;;
12135;SDS011;6131;56.420;15.548;2023-07-24T00:19:48;1.17;;;1.07;;
12135;SDS011;6131;56.420;15.548;2023-07-24T00:22:14;1.37;;;1.10;;
12135;SDS011;6131;56.420;15.548;2023-07-24T00:24:40;1.27;;;1.17;;
12135;SDS011;6131;56.420;15.548;2023-07-24T00:27:06;1.83;;;1.20;;
12135;SDS011;6131;56.420;15.548;2023-07-24T00:29:32;2.47;;;1.30;;
12135;SDS011;6131;56.420;15.548;2023-07-24T00:31:58;1.50;;;1.30;;
12135;SDS011;6131;56.420;15.548;2023-07-24T00:34:24;1.50;;;1.10;;
12135;SDS011;6131;56.420;15.548;2023-07-24T00:36:50;1.50;;;1.40;;
12135;SDS011;6131;56.420;15.548;2023-07-24T00:39:16;2.13;;;1.47;;
12135;SDS011;6131;56.420;15.548;2023-07-24T00:41:43;1.90;;;1.30;;
12135;SDS011;6131;56.420;15.548;2023-07-24T00:44:09;2.27;;;1.60;;
12135;SDS011;6131;56.420;15.548;2023-07-24T00:46:35;2.37;;;1.50;;
12135;SDS011;6131;56.420;15.548;2023-07-24T00:49:02;1.50;;;1.13;;
12135;SDS011;6131;56.420;15.548;2023-07-24T00:51:28;1.40;;;1.30;;
12135;SDS011;6131;56.420;15.548;2023-07-24T00:53:57;2.00;;;1.40;;
12135;SDS011;6131;56.420;15.548;2023-07-24T00:56:25;1.73;;;1.50;;
12135;SDS011;6131;56.420;15.548;2023-07-24T00:58:52;2.20;;;1.47;;
12135;SDS011;6131;56.420;15.548;2023-07-24T01:01:20;1.90;;;1.40;;
12135;SDS011;6131;56.420;15.548;2023-07-24T01:03:46;1.90;;;1.43;;
12135;SDS011;6131;56.420;15.548;2023-07-24T01:06:12;2.37;;;1.50;;
12135;SDS011;6131;56.420;15.548;2023-07-24T01:08:38;1.53;;;1.43;;
12135;SDS011;6131;56.420;15.548;2023-07-24T01:11:24;1.37;;;1.20;;
12135;SDS011;6131;56.420;15.548;2023-07-24T01:13:56;2.33;;;1.30;;
12135;SDS011;6131;56.420;15.548;2023-07-24T01:16:23;1.70;;;1.47;;
12135;SDS011;6131;56.420;15.548;2023-07-24T01:18:51;1.57;;;1.40;;
12135;SDS011;6131;56.420;15.548;2023-07-24T01:21:20;1.60;;;1.50;;
12135;SDS011;6131;56.420;15.548;2023-07-24T01:23:58;2.17;;;1.47;;
12135;SDS011;6131;56.420;15.548;2023-07-24T01:26:26;1.53;;;1.43;;
12135;SDS011;6131;56.420;15.548;2023-07-24T01:28:52;1.73;;;1.10;;
12135;SDS011;6131;56.420;15.548;2023-07-24T01:31:18;1.47;;;1.30;;
12135;SDS011;6131;56.420;15.548;2023-07-24T01:33:44;2.17;;;1.40;;
12135;SDS011;6131;56.420;15.548;2023-07-24T01:36:10;1.53;;;1.30;;
12135;SDS011;6131;56.420;15.548;2023-07-24T01:38:36;1.23;;;1.13;;
12135;SDS011;6131;56.420;15.548;2023-07-24T01:41:03;1.07;;;0.97;;
12135;SDS011;6131;56.420;15.548;2023-07-24T01:43:29;1.07;;;0.97;;
12135;SDS011;6131;56.420;15.548;2023-07-24T01:45:57;1.10;;;1.00;;
12135;SDS011;6131;56.420;15.548;2023-07-24T01:48:23;1.10;;;1.00;;
12135;SDS011;6131;56.420;15.548;2023-07-24T01:50:49;1.53;;;1.10;;
12135;SDS011;6131;56.420;15.548;2023-07-24T01:53:15;1.20;;;1.10;;
12135;SDS011;6131;56.420;15.548;2023-07-24T01:55:41;1.70;;;1.00;;
12135;SDS011;6131;56.420;15.548;2023-07-24T01:58:07;2.33;;;1.20;;
12135;SDS011;6131;56.420;15.548;2023-07-24T02:00:33;1.70;;;1.37;;
12135;SDS011;6131;56.420;15.548;2023-07-24T02:02:59;1.57;;;1.40;;
12135;SDS011;6131;56.420;15.548;2023-07-24T02:05:25;1.70;;;1.50;;
12135;SDS011;6131;56.420;15.548;2023-07-24T02:07:51;1.60;;;1.50;;
12135;SDS011;6131;56.420;15.548;2023-07-24T02:10:17;4.57;;;1.80;;
12135;SDS011;6131;56.420;15.548;2023-07-24T02:12:43;3.20;;;1.70;;
12135;SDS011;6131;56.420;15.548;2023-07-24T02:15:09;3.17;;;2.17;;
12135;SDS011;6131;56.420;15.548;2023-07-24T02:17:35;2.60;;;2.20;;
12135;SDS011;6131;56.420;15.548;2023-07-24T02:20:02;3.07;;;2.47;;
12135;SDS011;6131;56.420;15.548;2023-07-24T02:22:28;4.13;;;2.50;;
12135;SDS011;6131;56.420;15.548;2023-07-24T02:24:54;2.60;;;2.40;;
12135;SDS011;6131;56.420;15.548;2023-07-24T02:27:30;5.50;;;2.90;;
12135;SDS011;6131;56.420;15.548;2023-07-24T02:29:56;3.07;;;2.77;;
12135;SDS011;6131;56.420;15.548;2023-07-24T02:32:22;4.03;;;3.10;;
12135;SDS011;6131;56.420;15.548;2023-07-24T02:34:49;5.67;;;4.00;;
12135;SDS011;6131;56.420;15.548;2023-07-24T02:37:15;4.50;;;3.57;;
12135;SDS011;6131;56.420;15.548;2023-07-24T02:39:41;4.57;;;3.90;;
12135;SDS011;6131;56.420;15.548;2023-07-24T02:42:07;4.73;;;4.17;;
12135;SDS011;6131;56.420;15.548;2023-07-24T02:44:34;5.33;;;4.07;;
12135;SDS011;6131;56.420;15.548;2023-07-24T02:47:00;4.60;;;4.10;;
12135;SDS011;6131;56.420;15.548;2023-07-24T02:49:26;6.37;;;4.57;;
12135;SDS011;6131;56.420;15.548;2023-07-24T02:51:52;7.57;;;4.40;;
12135;SDS011;6131;56.420;15.548;2023-07-24T02:54:18;4.80;;;4.20;;
12135;SDS011;6131;56.420;15.548;2023-07-24T02:56:44;5.97;;;5.10;;
12135;SDS011;6131;56.420;15.548;2023-07-24T02:59:10;6.37;;;5.13;;
12135;SDS011;6131;56.420;15.548;2023-07-24T03:01:36;8.80;;;5.83;;
12135;SDS011;6131;56.420;15.548;2023-07-24T03:04:02;6.93;;;5.93;;
12135;SDS011;6131;56.420;15.548;2023-07-24T03:06:30;7.33;;;5.60;;
12135;SDS011;6131;56.420;15.548;2023-07-24T03:08:56;7.90;;;6.17;;
12135;SDS011;6131;56.420;15.548;2023-07-24T03:11:22;10.60;;;6.30;;
12135;SDS011;6131;56.420;15.548;2023-07-24T03:13:48;6.13;;;5.53;;
12135;SDS011;6131;56.420;15.548;2023-07-24T03:16:14;7.45;;;6.65;;
12135;SDS011;6131;56.420;15.548;2023-07-24T03:18:42;11.23;;;6.67;;
12135;SDS011;6131;56.420;15.548;2023-07-24T03:21:08;8.20;;;6.87;;
12135;SDS011;6131;56.420;15.548;2023-07-24T03:23:34;8.87;;;6.33;;
12135;SDS011;6131;56.420;15.548;2023-07-24T03:26:00;8.67;;;6.47;;
12135;SDS011;6131;56.420;15.548;2023-07-24T03:28:26;11.43;;;7.20;;
12135;SDS011;6131;56.420;15.548;2023-07-24T03:30:52;8.77;;;7.13;;
12135;SDS011;6131;56.420;15.548;2023-07-24T03:33:20;9.70;;;7.03;;
12135;SDS011;6131;56.420;15.548;2023-07-24T03:35:46;10.37;;;6.97;;
12135;SDS011;6131;56.420;15.548;2023-07-24T03:38:12;10.37;;;7.67;;
12135;SDS011;6131;56.420;15.548;2023-07-24T03:40:38;7.85;;;6.93;;
12135;SDS011;6131;56.420;15.548;2023-07-24T03:43:03;8.87;;;7.13;;
12135;SDS011;6131;56.420;15.548;2023-07-24T03:45:30;11.68;;;7.55;;
12135;SDS011;6131;56.420;15.548;2023-07-24T03:47:56;9.10;;;7.47;;
12135;SDS011;6131;56.420;15.548;2023-07-24T03:50:22;9.50;;;7.90;;
12135;SDS011;6131;56.420;15.548;2023-07-24T03:52:48;10.43;;;7.33;;
12135;SDS011;6131;56.420;15.548;2023-07-24T03:55:14;9.93;;;7.75;;
12135;SDS011;6131;56.420;15.548;2023-07-24T03:57:40;8.63;;;7.32;;
12135;SDS011;6131;56.420;15.548;2023-07-24T04:00:06;15.23;;;8.50;;
12135;SDS011;6131;56.420;15.548;2023-07-24T04:02:32;12.60;;;8.00;;
12135;SDS011;6131;56.420;15.548;2023-07-24T04:04:58;15.60;;;8.87;;
12135;SDS011;6131;56.420;15.548;2023-07-24T04:07:24;13.23;;;8.07;;
12135;SDS011;6131;56.420;15.548;2023-07-24T04:09:50;12.15;;;8.52;;
12135;SDS011;6131;56.420;15.548;2023-07-24T04:12:16;11.30;;;7.93;;
12135;SDS011;6131;56.420;15.548;2023-07-24T04:14:42;11.27;;;7.95;;
12135;SDS011;6131;56.420;15.548;2023-07-24T04:17:08;15.00;;;8.52;;
12135;SDS011;6131;56.420;15.548;2023-07-24T04:19:34;12.38;;;8.50;;
12135;SDS011;6131;56.420;15.548;2023-07-24T04:22:00;13.15;;;8.40;;
12135;SDS011;6131;56.420;15.548;2023-07-24T04:24:26;15.90;;;9.00;;
12135;SDS011;6131;56.420;15.548;2023-07-24T04:26:52;12.45;;;8.90;;
12135;SDS011;6131;56.420;15.548;2023-07-24T04:29:18;12.13;;;8.70;;
12135;SDS011;6131;56.420;15.548;2023-07-24T04:31:48;14.82;;;9.10;;
12135;SDS011;6131;56.420;15.548;2023-07-24T04:34:15;14.70;;;9.30;;
12135;SDS011;6131;56.420;15.548;2023-07-24T04:36:41;12.63;;;9.55;;
12135;SDS011;6131;56.420;15.548;2023-07-24T04:39:07;12.73;;;8.80;;
12135;SDS011;6131;56.420;15.548;2023-07-24T04:41:33;18.38;;;9.38;;
12135;SDS011;6131;56.420;15.548;2023-07-24T04:43:59;14.10;;;9.23;;
12135;SDS011;6131;56.420;15.548;2023-07-24T04:46:25;14.15;;;9.02;;
12135;SDS011;6131;56.420;15.548;2023-07-24T04:48:51;13.68;;;8.80;;
12135;SDS011;6131;56.420;15.548;2023-07-24T04:51:17;10.55;;;8.90;;
12135;SDS011;6131;56.420;15.548;2023-07-24T04:53:43;12.23;;;9.25;;
12135;SDS011;6131;56.420;15.548;2023-07-24T04:56:09;15.48;;;10.00;;
12135;SDS011;6131;56.420;15.548;2023-07-24T04:58:35;16.98;;;9.68;;
12135;SDS011;6131;56.420;15.548;2023-07-24T05:01:04;11.43;;;8.80;;
12135;SDS011;6131;56.420;15.548;2023-07-24T05:03:31;15.73;;;8.93;;
12135;SDS011;6131;56.420;15.548;2023-07-24T05:05:57;14.55;;;8.90;;
12135;SDS011;6131;56.420;15.548;2023-07-24T05:08:23;14.98;;;8.90;;
12135;SDS011;6131;56.420;15.548;2023-07-24T05:10:56;13.45;;;8.55;;
12135;SDS011;6131;56.420;15.548;2023-07-24T05:13:22;11.23;;;7.68;;
12135;SDS011;6131;56.420;15.548;2023-07-24T05:15:48;13.93;;;8.68;;
12135;SDS011;6131;56.420;15.548;2023-07-24T05:18:14;11.85;;;8.38;;
12135;SDS011;6131;56.420;15.548;2023-07-24T05:20:49;9.25;;;7.93;;
12135;SDS011;6131;56.420;15.548;2023-07-24T05:23:16;11.48;;;8.68;;
12135;SDS011;6131;56.420;15.548;2023-07-24T05:25:42;11.55;;;7.97;;
12135;SDS011;6131;56.420;15.548;2023-07-24T05:28:08;12.40;;;8.40;;
12135;SDS011;6131;56.420;15.548;2023-07-24T05:30:34;10.43;;;8.32;;
12135;SDS011;6131;56.420;15.548;2023-07-24T05:33:00;9.73;;;7.65;;
12135;SDS011;6131;56.420;15.548;2023-07-24T05:35:26;9.23;;;7.82;;
12135;SDS011;6131;56.420;15.548;2023-07-24T05:37:52;10.60;;;8.15;;
12135;SDS011;6131;56.420;15.548;2023-07-24T05:40:18;8.85;;;7.93;;
12135;SDS011;6131;56.420;15.548;2023-07-24T05:42:45;12.52;;;8.07;;
12135;SDS011;6131;56.420;15.548;2023-07-24T05:45:12;10.00;;;8.02;;
12135;SDS011;6131;56.420;15.548;2023-07-24T05:47:39;8.68;;;7.53;;
12135;SDS011;6131;56.420;15.548;2023-07-24T05:50:06;11.32;;;7.10;;
12135;SDS011;6131;56.420;15.548;2023-07-24T05:52:32;9.48;;;7.18;;
12135;SDS011;6131;56.420;15.548;2023-07-24T05:54:58;8.77;;;6.78;;
12135;SDS011;6131;56.420;15.548;2023-07-24T05:57:24;10.45;;;7.00;;
12135;SDS011;6131;56.420;15.548;2023-07-24T05:59:50;10.02;;;7.00;;
12135;SDS011;6131;56.420;15.548;2023-07-24T06:02:17;11.95;;;7.38;;
12135;SDS011;6131;56.420;15.548;2023-07-24T06:04:42;16.80;;;7.53;;
12135;SDS011;6131;56.420;15.548;2023-07-24T06:07:08;10.77;;;7.07;;
12135;SDS011;6131;56.420;15.548;2023-07-24T06:09:34;9.57;;;7.80;;
12135;SDS011;6131;56.420;15.548;2023-07-24T06:12:00;9.35;;;7.75;;
12135;SDS011;6131;56.420;15.548;2023-07-24T06:14:26;11.60;;;8.02;;
12135;SDS011;6131;56.420;15.548;2023-07-24T06:16:52;9.43;;;8.07;;
12135;SDS011;6131;56.420;15.548;2023-07-24T06:19:18;12.88;;;8.80;;
12135;SDS011;6131;56.420;15.548;2023-07-24T06:21:44;11.63;;;7.80;;
12135;SDS011;6131;56.420;15.548;2023-07-24T06:24:10;16.15;;;8.85;;
12135;SDS011;6131;56.420;15.548;2023-07-24T06:26:38;10.18;;;7.75;;
12135;SDS011;6131;56.420;15.548;2023-07-24T06:29:04;15.07;;;8.55;;
12135;SDS011;6131;56.420;15.548;2023-07-24T06:31:30;11.55;;;8.27;;
12135;SDS011;6131;56.420;15.548;2023-07-24T06:33:56;11.07;;;7.85;;
12135;SDS011;6131;56.420;15.548;2023-07-24T06:36:22;13.30;;;8.50;;
12135;SDS011;6131;56.420;15.548;2023-07-24T06:38:48;13.23;;;8.45;;
12135;SDS011;6131;56.420;15.548;2023-07-24T06:41:14;10.85;;;7.75;;
12135;SDS011;6131;56.420;15.548;2023-07-24T06:43:41;11.65;;;8.30;;
12135;SDS011;6131;56.420;15.548;2023-07-24T06:46:07;12.93;;;8.43;;
12135;SDS011;6131;56.420;15.548;2023-07-24T06:48:33;11.50;;;7.80;;
12135;SDS011;6131;56.420;15.548;2023-07-24T06:50:59;9.45;;;7.18;;
12135;SDS011;6131;56.420;15.548;2023-07-24T06:53:25;11.45;;;7.30;;
12135;SDS011;6131;56.420;15.548;2023-07-24T06:55:51;9.00;;;6.93;;
12135;SDS011;6131;56.420;15.548;2023-07-24T06:58:17;7.70;;;6.60;;
12135;SDS011;6131;56.420;15.548;2023-07-24T07:00:43;9.60;;;6.88;;
12135;SDS011;6131;56.420;15.548;2023-07-24T07:03:09;14.20;;;7.78;;
12135;SDS011;6131;56.420;15.548;2023-07-24T07:05:35;11.20;;;7.22;;
12135;SDS011;6131;56.420;15.548;2023-07-24T07:08:01;10.45;;;7.80;;
12135;SDS011;6131;56.420;15.548;2023-07-24T07:10:27;11.77;;;7.25;;
12135;SDS011;6131;56.420;15.548;2023-07-24T07:12:53;7.80;;;7.03;;
12135;SDS011;6131;56.420;15.548;2023-07-24T07:15:20;12.50;;;7.13;;
12135;SDS011;6131;56.420;15.548;2023-07-24T07:17:46;9.45;;;6.80;;
12135;SDS011;6131;56.420;15.548;2023-07-24T07:20:11;10.43;;;7.80;;
12135;SDS011;6131;56.420;15.548;2023-07-24T07:22:37;11.38;;;7.20;;
12135;SDS011;6131;56.420;15.548;2023-07-24T07:25:04;7.85;;;6.78;;
12135;SDS011;6131;56.420;15.548;2023-07-24T07:27:30;10.30;;;7.03;;
12135;SDS011;6131;56.420;15.548;2023-07-24T07:29:56;8.60;;;6.95;;
12135;SDS011;6131;56.420;15.548;2023-07-24T07:32:22;9.10;;;6.97;;
12135;SDS011;6131;56.420;15.548;2023-07-24T07:34:48;11.02;;;7.38;;
12135;SDS011;6131;56.420;15.548;2023-07-24T07:37:14;10.00;;;6.93;;
12135;SDS011;6131;56.420;15.548;2023-07-24T07:39:40;7.70;;;6.43;;
12135;SDS011;6131;56.420;15.548;2023-07-24T07:42:06;12.05;;;6.35;;
12135;SDS011;6131;56.420;15.548;2023-07-24T07:44:32;6.65;;;5.93;;
12135;SDS011;6131;56.420;15.548;2023-07-24T07:46:57;6.32;;;5.63;;
12135;SDS011;6131;56.420;15.548;2023-07-24T07:49:23;8.77;;;6.57;;
12135;SDS011;6131;56.420;15.548;2023-07-24T07:51:49;8.70;;;6.45;;
12135;SDS011;6131;56.420;15.548;2023-07-24T07:54:15;8.80;;;5.65;;
12135;SDS011;6131;56.420;15.548;2023-07-24T07:56:41;9.52;;;5.78;;
12135;SDS011;6131;56.420;15.548;2023-07-24T07:59:08;6.75;;;5.75;;
12135;SDS011;6131;56.420;15.548;2023-07-24T08:01:35;7.07;;;5.60;;
12135;SDS011;6131;56.420;15.548;2023-07-24T08:04:01;11.63;;;5.68;;
12135;SDS011;6131;56.420;15.548;2023-07-24T08:06:27;6.55;;;5.65;;
12135;SDS011;6131;56.420;15.548;2023-07-24T08:08:53;7.05;;;5.35;;
12135;SDS011;6131;56.420;15.548;2023-07-24T08:11:19;9.27;;;5.70;;
12135;SDS011;6131;56.420;15.548;2023-07-24T08:13:45;7.05;;;5.07;;
12135;SDS011;6131;56.420;15.548;2023-07-24T08:16:14;7.60;;;5.05;;
12135;SDS011;6131;56.420;15.548;2023-07-24T08:18:47;11.10;;;5.10;;
12135;SDS011;6131;56.420;15.548;2023-07-24T08:21:13;8.45;;;5.25;;
12135;SDS011;6131;56.420;15.548;2023-07-24T08:23:40;7.95;;;4.57;;
12135;SDS011;6131;56.420;15.548;2023-07-24T08:26:06;8.40;;;4.97;;
12135;SDS011;6131;56.420;15.548;2023-07-24T08:28:33;4.95;;;4.45;;
12135;SDS011;6131;56.420;15.548;2023-07-24T08:31:00;8.07;;;4.95;;
12135;SDS011;6131;56.420;15.548;2023-07-24T08:33:27;6.07;;;5.38;;
12135;SDS011;6131;56.420;15.548;2023-07-24T08:36:03;8.10;;;5.25;;
12135;SDS011;6131;56.420;15.548;2023-07-24T08:38:29;7.40;;;5.43;;
12135;SDS011;6131;56.420;15.548;2023-07-24T08:41:05;5.90;;;5.10;;
12135;SDS011;6131;56.420;15.548;2023-07-24T08:43:32;13.48;;;6.05;;
12135;SDS011;6131;56.420;15.548;2023-07-24T08:45:58;9.68;;;6.13;;
12135;SDS011;6131;56.420;15.548;2023-07-24T08:48:31;6.50;;;5.72;;
12135;SDS011;6131;56.420;15.548;2023-07-24T08:51:00;8.50;;;6.10;;
12135;SDS011;6131;56.420;15.548;2023-07-24T08:53:28;8.05;;;5.45;;
12135;SDS011;6131;56.420;15.548;2023-07-24T08:55:55;8.85;;;5.60;;
12135;SDS011;6131;56.420;15.548;2023-07-24T08:58:21;10.65;;;6.00;;
12135;SDS011;6131;56.420;15.548;2023-07-24T09:00:47;8.18;;;6.00;;
12135;SDS011;6131;56.420;15.548;2023-07-24T09:03:14;9.30;;;6.00;;
12135;SDS011;6131;56.420;15.548;2023-07-24T09:05:40;8.50;;;6.68;;
12135;SDS011;6131;56.420;15.548;2023-07-24T09:08:06;7.40;;;5.65;;
12135;SDS011;6131;56.420;15.548;2023-07-24T09:10:32;10.45;;;6.15;;
12135;SDS011;6131;56.420;15.548;2023-07-24T09:12:58;8.15;;;5.65;;
12135;SDS011;6131;56.420;15.548;2023-07-24T09:15:24;10.05;;;6.10;;
12135;SDS011;6131;56.420;15.548;2023-07-24T09:17:50;10.07;;;6.57;;
12135;SDS011;6131;56.420;15.548;2023-07-24T09:20:17;9.95;;;6.80;;
12135;SDS011;6131;56.420;15.548;2023-07-24T09:25:15;7.15;;;5.97;;
12135;SDS011;6131;56.420;15.548;2023-07-24T09:27:42;9.02;;;6.22;;
12135;SDS011;6131;56.420;15.548;2023-07-24T09:30:13;11.75;;;7.15;;
12135;SDS011;6131;56.420;15.548;2023-07-24T09:32:39;10.85;;;5.97;;
12135;SDS011;6131;56.420;15.548;2023-07-24T09:35:15;7.50;;;6.20;;
12135;SDS011;6131;56.420;15.548;2023-07-24T09:37:42;9.20;;;6.03;;
12135;SDS011;6131;56.420;15.548;2023-07-24T09:40:10;8.00;;;5.13;;
12135;SDS011;6131;56.420;15.548;2023-07-24T09:42:36;6.68;;;4.70;;
12135;SDS011;6131;56.420;15.548;2023-07-24T09:45:03;5.78;;;4.20;;
12135;SDS011;6131;56.420;15.548;2023-07-24T09:47:29;7.10;;;4.53;;
12135;SDS011;6131;56.420;15.548;2023-07-24T09:49:55;5.35;;;4.50;;
12135;SDS011;6131;56.420;15.548;2023-07-24T09:52:21;7.35;;;4.50;;
12135;SDS011;6131;56.420;15.548;2023-07-24T09:54:53;6.75;;;4.10;;
12135;SDS011;6131;56.420;15.548;2023-07-24T09:57:21;5.28;;;4.07;;
12135;SDS011;6131;56.420;15.548;2023-07-24T09:59:47;4.65;;;4.10;;
12135;SDS011;6131;56.420;15.548;2023-07-24T10:02:14;7.50;;;4.38;;
12135;SDS011;6131;56.420;15.548;2023-07-24T10:04:40;6.97;;;4.57;;
12135;SDS011;6131;56.420;15.548;2023-07-24T10:07:06;5.80;;;4.68;;
12135;SDS011;6131;56.420;15.548;2023-07-24T10:09:33;5.20;;;4.40;;
12135;SDS011;6131;56.420;15.548;2023-07-24T10:11:59;5.47;;;4.18;;
12135;SDS011;6131;56.420;15.548;2023-07-24T10:14:26;5.60;;;4.35;;
12135;SDS011;6131;56.420;15.548;2023-07-24T10:16:52;7.25;;;3.90;;
12135;SDS011;6131;56.420;15.548;2023-07-24T10:19:20;7.63;;;4.75;;
12135;SDS011;6131;56.420;15.548;2023-07-24T10:21:48;6.63;;;4.25;;
12135;SDS011;6131;56.420;15.548;2023-07-24T10:24:15;5.75;;;4.47;;
12135;SDS011;6131;56.420;15.548;2023-07-24T10:26:41;7.20;;;4.18;;
12135;SDS011;6131;56.420;15.548;2023-07-24T10:29:08;4.97;;;3.70;;
12135;SDS011;6131;56.420;15.548;2023-07-24T10:31:34;5.07;;;4.03;;
12135;SDS011;6131;56.420;15.548;2023-07-24T10:34:04;6.28;;;4.10;;
12135;SDS011;6131;56.420;15.548;2023-07-24T10:36:33;7.93;;;4.38;;
12135;SDS011;6131;56.420;15.548;2023-07-24T10:38:59;4.85;;;3.80;;
12135;SDS011;6131;56.420;15.548;2023-07-24T10:41:36;5.07;;;3.90;;
12135;SDS011;6131;56.420;15.548;2023-07-24T10:44:02;6.28;;;3.97;;
12135;SDS011;6131;56.420;15.548;2023-07-24T10:46:38;7.18;;;3.88;;
12135;SDS011;6131;56.420;15.548;2023-07-24T10:49:04;7.07;;;4.07;;
12135;SDS011;6131;56.420;15.548;2023-07-24T10:51:31;9.52;;;4.32;;
12135;SDS011;6131;56.420;15.548;2023-07-24T10:54:02;5.95;;;3.60;;
12135;SDS011;6131;56.420;15.548;2023-07-24T10:56:29;6.28;;;4.22;;
12135;SDS011;6131;56.420;15.548;2023-07-24T10:58:55;5.10;;;3.90;;
12135;SDS011;6131;56.420;15.548;2023-07-24T11:01:21;8.07;;;4.15;;
12135;SDS011;6131;56.420;15.548;2023-07-24T11:03:48;7.07;;;3.95;;
12135;SDS011;6131;56.420;15.548;2023-07-24T11:06:16;5.07;;;4.32;;
12135;SDS011;6131;56.420;15.548;2023-07-24T11:08:50;6.22;;;4.78;;
12135;SDS011;6131;56.420;15.548;2023-07-24T11:11:17;5.95;;;4.45;;
12135;SDS011;6131;56.420;15.548;2023-07-24T11:13:43;7.35;;;4.03;;
12135;SDS011;6131;56.420;15.548;2023-07-24T11:16:10;10.48;;;4.63;;
12135;SDS011;6131;56.420;15.548;2023-07-24T11:18:46;5.93;;;4.13;;
12135;SDS011;6131;56.420;15.548;2023-07-24T11:21:13;5.43;;;4.60;;
12135;SDS011;6131;56.420;15.548;2023-07-24T11:23:48;5.32;;;3.97;;
12135;SDS011;6131;56.420;15.548;2023-07-24T11:26:14;5.50;;;4.63;;
12135;SDS011;6131;56.420;15.548;2023-07-24T11:28:41;8.23;;;4.43;;
12135;SDS011;6131;56.420;15.548;2023-07-24T11:31:07;6.03;;;4.43;;
12135;SDS011;6131;56.420;15.548;2023-07-24T11:33:33;7.88;;;5.03;;
12135;SDS011;6131;56.420;15.548;2023-07-24T11:35:59;6.57;;;4.10;;
12135;SDS011;6131;56.420;15.548;2023-07-24T11:38:25;9.43;;;4.07;;
12135;SDS011;6131;56.420;15.548;2023-07-24T11:40:53;6.90;;;4.25;;
12135;SDS011;6131;56.420;15.548;2023-07-24T11:43:23;5.60;;;4.35;;
12135;SDS011;6131;56.420;15.548;2023-07-24T11:45:50;6.18;;;4.18;;
12135;SDS011;6131;56.420;15.548;2023-07-24T11:48:20;9.10;;;4.05;;
12135;SDS011;6131;56.420;15.548;2023-07-24T11:50:47;7.35;;;4.15;;
12135;SDS011;6131;56.420;15.548;2023-07-24T11:53:30;5.13;;;4.47;;
12135;SDS011;6131;56.420;15.548;2023-07-24T11:55:57;7.50;;;4.15;;
12135;SDS011;6131;56.420;15.548;2023-07-24T11:58:27;5.97;;;3.85;;
12135;SDS011;6131;56.420;15.548;2023-07-24T12:00:54;5.28;;;4.03;;
12135;SDS011;6131;56.420;15.548;2023-07-24T12:03:21;7.60;;;3.85;;
12135;SDS011;6131;56.420;15.548;2023-07-24T12:05:47;8.20;;;4.20;;
12135;SDS011;6131;56.420;15.548;2023-07-24T12:08:13;6.43;;;4.60;;
12135;SDS011;6131;56.420;15.548;2023-07-24T12:10:40;9.65;;;4.38;;
12135;SDS011;6131;56.420;15.548;2023-07-24T12:13:06;4.90;;;4.10;;
12135;SDS011;6131;56.420;15.548;2023-07-24T12:15:33;8.10;;;4.50;;
12135;SDS011;6131;56.420;15.548;2023-07-24T12:18:00;5.65;;;4.22;;
12135;SDS011;6131;56.420;15.548;2023-07-24T12:20:26;8.65;;;4.90;;
12135;SDS011;6131;56.420;15.548;2023-07-24T12:22:52;5.88;;;4.38;;
12135;SDS011;6131;56.420;15.548;2023-07-24T12:25:18;7.75;;;4.93;;
12135;SDS011;6131;56.420;15.548;2023-07-24T12:27:45;6.20;;;4.35;;
12135;SDS011;6131;56.420;15.548;2023-07-24T12:30:12;6.93;;;4.35;;
12135;SDS011;6131;56.420;15.548;2023-07-24T12:32:39;6.95;;;4.38;;
12135;SDS011;6131;56.420;15.548;2023-07-24T12:35:05;6.95;;;4.57;;
12135;SDS011;6131;56.420;15.548;2023-07-24T12:37:31;7.15;;;4.30;;
12135;SDS011;6131;56.420;15.548;2023-07-24T12:39:57;6.25;;;4.55;;
12135;SDS011;6131;56.420;15.548;2023-07-24T12:42:23;6.75;;;4.43;;
12135;SDS011;6131;56.420;15.548;2023-07-24T12:44:49;8.13;;;4.05;;
12135;SDS011;6131;56.420;15.548;2023-07-24T12:47:15;5.45;;;4.20;;
12135;SDS011;6131;56.420;15.548;2023-07-24T12:49:41;6.57;;;3.90;;
12135;SDS011;6131;56.420;15.548;2023-07-24T12:52:10;5.75;;;3.97;;
12135;SDS011;6131;56.420;15.548;2023-07-24T12:54:36;4.63;;;3.78;;
12135;SDS011;6131;56.420;15.548;2023-07-24T12:57:02;8.15;;;4.45;;
12135;SDS011;6131;56.420;15.548;2023-07-24T12:59:29;6.47;;;3.50;;
12135;SDS011;6131;56.420;15.548;2023-07-24T13:01:55;9.07;;;4.00;;
12135;SDS011;6131;56.420;15.548;2023-07-24T13:04:22;6.70;;;4.18;;
12135;SDS011;6131;56.420;15.548;2023-07-24T13:06:49;5.15;;;4.20;;
12135;SDS011;6131;56.420;15.548;2023-07-24T13:09:15;5.93;;;3.78;;
12135;SDS011;6131;56.420;15.548;2023-07-24T13:11:41;6.93;;;4.57;;
12135;SDS011;6131;56.420;15.548;2023-07-24T13:14:07;8.68;;;4.30;;
12135;SDS011;6131;56.420;15.548;2023-07-24T13:16:33;5.95;;;4.22;;
12135;SDS011;6131;56.420;15.548;2023-07-24T13:18:59;6.00;;;4.03;;
12135;SDS011;6131;56.420;15.548;2023-07-24T13:21:25;6.63;;;3.88;;
12135;SDS011;6131;56.420;15.548;2023-07-24T13:23:51;8.07;;;3.95;;
12135;SDS011;6131;56.420;15.548;2023-07-24T13:26:19;5.47;;;4.47;;
12135;SDS011;6131;56.420;15.548;2023-07-24T13:28:45;7.88;;;3.92;;
12135;SDS011;6131;56.420;15.548;2023-07-24T13:31:18;7.68;;;4.07;;
12135;SDS011;6131;56.420;15.548;2023-07-24T13:33:45;6.45;;;4.03;;
12135;SDS011;6131;56.420;15.548;2023-07-24T13:36:11;7.22;;;3.85;;
12135;SDS011;6131;56.420;15.548;2023-07-24T13:38:37;5.90;;;4.30;;
12135;SDS011;6131;56.420;15.548;2023-07-24T13:41:03;5.32;;;3.58;;
12135;SDS011;6131;56.420;15.548;2023-07-24T13:43:30;6.60;;;3.85;;
12135;SDS011;6131;56.420;15.548;2023-07-24T13:45:56;5.85;;;4.10;;
12135;SDS011;6131;56.420;15.548;2023-07-24T13:48:22;7.68;;;4.20;;
12135;SDS011;6131;56.420;15.548;2023-07-24T13:50:49;5.15;;;3.78;;
12135;SDS011;6131;56.420;15.548;2023-07-24T13:53:15;5.57;;;3.80;;
12135;SDS011;6131;56.420;15.548;2023-07-24T13:55:41;6.15;;;4.20;;
12135;SDS011;6131;56.420;15.548;2023-07-24T13:58:07;7.15;;;4.20;;
12135;SDS011;6131;56.420;15.548;2023-07-24T14:00:33;5.38;;;4.30;;
12135;SDS011;6131;56.420;15.548;2023-07-24T14:02:59;6.15;;;4.15;;
12135;SDS011;6131;56.420;15.548;2023-07-24T14:05:25;6.45;;;4.35;;
12135;SDS011;6131;56.420;15.548;2023-07-24T14:07:51;6.18;;;3.70;;
12135;SDS011;6131;56.420;15.548;2023-07-24T14:10:17;5.28;;;3.80;;
12135;SDS011;6131;56.420;15.548;2023-07-24T14:12:45;6.65;;;4.10;;
12135;SDS011;6131;56.420;15.548;2023-07-24T14:15:11;5.90;;;3.75;;
12135;SDS011;6131;56.420;15.548;2023-07-24T14:17:37;5.32;;;3.72;;
12135;SDS011;6131;56.420;15.548;2023-07-24T14:20:04;6.15;;;3.83;;
12135;SDS011;6131;56.420;15.548;2023-07-24T14:22:30;7.70;;;3.92;;
12135;SDS011;6131;56.420;15.548;2023-07-24T14:24:56;4.15;;;3.75;;
12135;SDS011;6131;56.420;15.548;2023-07-24T14:27:24;5.05;;;3.60;;
12135;SDS011;6131;56.420;15.548;2023-07-24T14:29:50;7.13;;;3.60;;
12135;SDS011;6131;56.420;15.548;2023-07-24T14:32:16;4.75;;;3.60;;
12135;SDS011;6131;56.420;15.548;2023-07-24T14:34:42;5.38;;;3.53;;
12135;SDS011;6131;56.420;15.548;2023-07-24T14:37:08;7.75;;;4.25;;
12135;SDS011;6131;56.420;15.548;2023-07-24T14:39:34;8.15;;;3.95;;
12135;SDS011;6131;56.420;15.548;2023-07-24T14:42:01;5.00;;;3.88;;
12135;SDS011;6131;56.420;15.548;2023-07-24T14:44:27;4.93;;;3.70;;